Time;durP1;ratioP1;P1;durP2;ratioP2;P2;SDS_P1;SDS_P2;PMS_P1;PMS_P2;Temp;Humidity;BMP_temperature;BMP_pressure;BME280_temperature;BME280_humidity;BME280_pressure;Samples;Min_cycle;Max_cycle;Signal;HPM_P1;HPM_P2
2022/05/29 00:00:18;;;;;;;0.65;0.60;;;23.00;42.80;;;-147.20;100.00;58430.41;5078079;28;20048;-19
2022/05/29 00:02:44;;;;;;;1.20;0.60;;;23.00;42.30;;;-147.20;100.00;58430.41;5096611;28;20089;-20
2022/05/29 00:05:12;;;;;;;0.30;0.30;;;22.90;42.20;;;-147.20;100.00;58430.41;5096218;28;20052;-19
2022/05/29 00:07:39;;;;;;;1.20;0.60;;;23.00;42.30;;;-147.20;100.00;58430.41;5077676;28;20044;-19
2022/05/29 00:10:09;;;;;;;0.73;0.50;;;22.90;42.20;;;-147.20;100.00;58430.41;5077551;28;20044;-19
2022/05/29 00:12:35;;;;;;;0.60;0.60;;;22.90;42.20;;;-147.20;100.00;58430.41;5095974;28;20484;-19
2022/05/29 00:15:02;;;;;;;0.95;0.63;;;23.00;42.30;;;-147.20;100.00;58430.41;5095927;28;20158;-19
2022/05/29 00:17:28;;;;;;;0.52;0.50;;;22.90;42.30;;;-147.20;100.00;58430.41;5095883;28;20044;-19
2022/05/29 00:19:53;;;;;;;0.50;0.50;;;22.90;42.30;;;-147.20;100.00;58430.41;5095971;28;20476;-19
2022/05/29 00:22:21;;;;;;;0.65;0.57;;;22.90;42.30;;;-147.20;100.00;58430.41;5096298;28;20036;-19
2022/05/29 00:24:49;;;;;;;1.13;0.50;;;22.90;42.30;;;-147.20;100.00;58430.41;5077966;28;20139;-19
2022/05/29 00:27:16;;;;;;;0.40;0.40;;;22.90;42.30;;;-147.20;100.00;58430.41;5095839;28;20066;-19
2022/05/29 00:29:43;;;;;;;1.08;0.52;;;22.90;42.30;;;-147.20;100.00;58430.41;5077448;28;20044;-19
2022/05/29 00:32:10;;;;;;;0.50;0.40;;;22.90;42.30;;;-147.20;100.00;58430.41;5095675;28;20055;-20
2022/05/29 00:34:36;;;;;;;0.50;0.50;;;22.90;42.30;;;-147.20;100.00;58430.41;5095666;28;20109;-19
2022/05/29 00:37:06;;;;;;;0.68;0.60;;;22.90;42.30;;;-147.20;100.00;58430.41;5095514;28;20407;-19
2022/05/29 00:39:34;;;;;;;0.98;0.60;;;22.90;42.30;;;-147.20;100.00;58430.41;5077242;28;20059;-19
2022/05/29 00:42:06;;;;;;;1.25;0.60;;;22.90;42.30;;;-147.20;100.00;58430.41;5077530;28;20052;-19
2022/05/29 00:44:35;;;;;;;0.93;0.43;;;22.90;42.30;;;-147.20;100.00;58430.41;5095561;28;20040;-19
2022/05/29 00:47:12;;;;;;;0.50;0.50;;;22.90;42.30;;;-147.20;100.00;58430.41;5095781;28;20044;-20
2022/05/29 00:49:41;;;;;;;0.52;0.50;;;22.90;42.30;;;-147.20;100.00;58430.41;5077070;28;20066;-19
2022/05/29 00:52:28;;;;;;;0.57;0.40;;;22.90;42.30;;;-147.20;100.00;58430.41;5095315;28;20040;-19
2022/05/29 00:55:01;;;;;;;0.70;0.50;;;22.90;42.30;;;-147.20;100.00;58430.41;5077409;28;20073;-19
2022/05/29 00:57:38;;;;;;;0.70;0.52;;;22.90;42.30;;;-147.20;100.00;58430.41;5095738;28;20043;-19
2022/05/29 01:00:18;;;;;;;0.95;0.65;;;22.90;42.30;;;-147.20;100.00;58430.41;5095350;28;20044;-19
2022/05/29 01:02:45;;;;;;;0.75;0.60;;;22.90;42.30;;;-147.20;100.00;58430.41;5095210;28;20040;-19
2022/05/29 01:05:14;;;;;;;0.82;0.50;;;22.90;42.30;;;-147.20;100.00;58430.41;5094113;28;20040;-19
2022/05/29 01:07:54;;;;;;;0.70;0.68;;;22.90;42.30;;;-147.20;100.00;58430.41;5095241;28;20119;-19
2022/05/29 01:10:32;;;;;;;0.63;0.60;;;22.80;42.30;;;-147.20;100.00;58430.41;5077007;28;20059;-19
2022/05/29 01:13:28;;;;;;;1.45;0.52;;;22.90;42.30;;;-147.20;100.00;58430.41;5077336;28;20056;-19
2022/05/29 01:16:10;;;;;;;0.50;0.40;;;22.90;42.30;;;-147.20;100.00;58430.41;5094966;28;20046;-19
2022/05/29 01:19:04;;;;;;;0.77;0.50;;;22.90;42.30;;;-147.20;100.00;58430.41;5075469;28;20051;-18
2022/05/29 01:22:07;;;;;;;0.65;0.50;;;22.90;42.30;;;-147.20;100.00;58430.41;5076641;28;20411;-19
2022/05/29 01:24:58;;;;;;;0.95;0.60;;;22.90;42.30;;;-147.20;100.00;58430.41;5094914;28;20541;-19
2022/05/29 01:28:09;;;;;;;0.60;0.60;;;22.80;42.30;;;-147.20;100.00;58430.41;5076708;28;20132;-19
2022/05/29 01:31:07;;;;;;;0.50;0.50;;;22.90;42.30;;;-147.20;100.00;58430.41;5094900;28;20131;-19
2022/05/29 01:33:51;;;;;;;0.50;0.50;;;22.90;42.30;;;-147.20;100.00;58430.41;5094808;28;20048;-19
2022/05/29 01:36:42;;;;;;;0.50;0.50;;;22.80;42.30;;;-147.20;100.00;58430.41;5060112;28;20052;-19
2022/05/29 01:39:35;;;;;;;0.45;0.43;;;22.80;42.30;;;-147.20;100.00;58430.41;5094940;28;20509;-19
2022/05/29 01:42:32;;;;;;;0.60;0.60;;;22.80;42.30;;;-147.20;100.00;58430.41;5076560;28;20395;-19
2022/05/29 01:45:15;;;;;;;0.80;0.63;;;22.90;42.30;;;-147.20;100.00;58430.41;5076388;28;20055;-19
2022/05/29 01:48:09;;;;;;;1.85;0.60;;;22.80;42.30;;;-147.20;100.00;58430.41;5077046;28;20067;-19
2022/05/29 01:50:42;;;;;;;0.80;0.50;;;22.80;42.30;;;-147.20;100.00;58430.41;5094487;28;20091;-19
2022/05/29 01:53:18;;;;;;;1.20;0.60;;;22.90;42.30;;;-147.20;100.00;58430.41;5076710;28;20055;-19
2022/05/29 01:55:50;;;;;;;0.40;0.40;;;22.80;42.30;;;-147.20;100.00;58430.41;5076319;28;20047;-19
2022/05/29 01:58:26;;;;;;;0.40;0.40;;;22.90;42.40;;;-147.20;100.00;58430.41;5093263;28;20040;-19
2022/05/29 02:00:54;;;;;;;0.47;0.45;;;22.90;42.30;;;-147.20;100.00;58430.41;5091123;28;20108;-19
2022/05/29 02:03:28;;;;;;;0.65;0.47;;;22.90;42.40;;;-147.20;100.00;58430.41;5094564;28;20040;-19
2022/05/29 02:06:03;;;;;;;0.50;0.50;;;22.90;42.40;;;-147.20;100.00;58430.41;5076690;28;20487;-19
2022/05/29 02:08:46;;;;;;;0.70;0.70;;;22.90;42.40;;;-147.20;100.00;58430.41;5076235;28;20059;-18
2022/05/29 02:11:24;;;;;;;0.40;0.40;;;22.80;42.30;;;-147.20;100.00;58430.41;5076093;28;20494;-19
2022/05/29 02:14:03;;;;;;;0.63;0.50;;;22.80;42.30;;;-147.20;100.00;58430.41;5094173;28;20047;-19
2022/05/29 02:16:37;;;;;;;0.60;0.50;;;22.80;42.30;;;-147.20;100.00;58430.41;5093933;28;20503;-19
2022/05/29 02:19:20;;;;;;;0.85;0.40;;;22.80;42.30;;;-147.20;100.00;58430.41;5074497;28;20102;-19
2022/05/29 02:21:54;;;;;;;0.60;0.60;;;22.80;42.30;;;-147.20;100.00;58430.41;5074412;28;20136;-19
2022/05/29 02:24:27;;;;;;;0.43;0.43;;;22.80;42.30;;;-147.20;100.00;58430.41;5074460;28;20083;-19
2022/05/29 02:27:26;;;;;;;0.40;0.40;;;22.80;42.30;;;-147.20;100.00;58430.41;5094030;28;20048;-19
2022/05/29 02:29:57;;;;;;;0.40;0.40;;;22.80;42.30;;;-147.20;100.00;58430.41;5058584;28;20130;-20
2022/05/29 02:32:56;;;;;;;0.50;0.50;;;22.80;42.30;;;-147.20;100.00;58430.41;5094125;28;20080;-19
2022/05/29 02:35:33;;;;;;;0.50;0.50;;;22.80;42.30;;;-147.20;100.00;58430.41;5075570;28;20075;-19
2022/05/29 02:38:23;;;;;;;0.57;0.57;;;22.80;42.40;;;-147.20;100.00;58430.41;5075622;28;20044;-18
2022/05/29 02:40:57;;;;;;;0.55;0.55;;;22.80;42.30;;;-147.20;100.00;58430.41;5094266;28;20113;-19
2022/05/29 02:43:49;;;;;;;0.40;0.40;;;22.80;42.30;;;-147.20;100.00;58430.41;5075552;28;20048;-18
2022/05/29 02:46:51;;;;;;;0.80;0.50;;;22.80;42.30;;;-147.20;100.00;58430.41;5075406;28;20055;-19
2022/05/29 02:49:28;;;;;;;0.50;0.50;;;22.80;42.30;;;-147.20;100.00;58430.41;5075434;28;20048;-19
2022/05/29 02:52:01;;;;;;;0.57;0.57;;;22.80;42.30;;;-147.20;100.00;58430.41;5075345;28;20048;-19
2022/05/29 02:54:31;;;;;;;0.50;0.50;;;22.80;42.30;;;-147.20;100.00;58430.41;5093512;28;20040;-19
2022/05/29 02:57:00;;;;;;;0.60;0.52;;;22.80;42.30;;;-147.20;100.00;58430.41;5093411;28;20051;-19
2022/05/29 02:59:40;;;;;;;0.75;0.57;;;22.80;42.40;;;-147.20;100.00;58430.41;5093249;28;20055;-19
2022/05/29 03:02:21;;;;;;;0.70;0.43;;;22.80;42.30;;;-147.20;100.00;58430.41;5073762;28;20080;-19
2022/05/29 03:05:05;;;;;;;0.40;0.40;;;22.80;42.30;;;-147.20;100.00;58430.41;5075243;28;20076;-19
2022/05/29 03:08:39;;;;;;;0.40;0.40;;;22.80;42.30;;;-147.20;100.00;58430.41;5075184;28;20398;-18
2022/05/29 03:11:14;;;;;;;0.55;0.55;;;22.70;42.30;;;-147.20;100.00;58430.41;5074588;28;20083;-19
2022/05/29 03:13:54;;;;;;;0.65;0.63;;;22.70;42.30;;;-147.20;100.00;58430.41;5075114;28;20048;-19
2022/05/29 03:16:37;;;;;;;0.50;0.40;;;22.80;42.30;;;-147.20;100.00;58430.41;5075066;28;20040;-19
2022/05/29 03:19:48;;;;;;;0.40;0.40;;;22.80;42.40;;;-147.20;100.00;58430.41;5074692;28;20503;-19
2022/05/29 03:22:52;;;;;;;0.57;0.57;;;22.80;42.40;;;-147.20;100.00;58430.41;5028650;28;20481;-19
2022/05/29 03:25:37;;;;;;;0.40;0.40;;;22.80;42.30;;;-147.20;100.00;58430.41;5054447;28;20134;-19
2022/05/29 03:28:20;;;;;;;0.40;0.40;;;22.80;42.40;;;-147.20;100.00;58430.41;5092165;28;20047;-19
2022/05/29 03:30:49;;;;;;;0.60;0.50;;;22.70;42.30;;;-147.20;100.00;58430.41;5074088;28;20049;-19
2022/05/29 03:33:16;;;;;;;0.52;0.50;;;22.80;42.40;;;-147.20;100.00;58430.41;5093018;28;20481;-19
2022/05/29 03:36:03;;;;;;;0.50;0.50;;;22.70;42.30;;;-147.20;100.00;58430.41;5092939;28;20044;-19
2022/05/29 03:38:29;;;;;;;0.30;0.30;;;22.70;42.40;;;-147.20;100.00;58430.41;5092685;28;20060;-19
2022/05/29 03:40:56;;;;;;;0.55;0.50;;;22.70;42.30;;;-147.20;100.00;58430.41;5092733;28;20044;-19
2022/05/29 03:43:22;;;;;;;0.80;0.50;;;22.70;42.90;;;-147.20;100.00;58430.41;5074676;28;20130;-19
2022/05/29 03:45:48;;;;;;;0.52;0.50;;;22.70;42.30;;;-147.20;100.00;58430.41;5092748;28;20071;-19
2022/05/29 03:48:13;;;;;;;0.55;0.50;;;22.70;42.40;;;-147.20;100.00;58430.41;5092826;28;20036;-19
2022/05/29 03:50:39;;;;;;;0.63;0.50;;;22.70;42.30;;;-147.20;100.00;58430.41;5092442;28;20044;-20
2022/05/29 03:53:05;;;;;;;0.98;0.60;;;22.70;42.30;;;-147.20;100.00;58430.41;5093273;28;20055;-19
2022/05/29 03:55:32;;;;;;;0.70;0.50;;;22.70;42.30;;;-147.20;100.00;58430.41;5092894;28;20391;-19
2022/05/29 03:57:58;;;;;;;0.65;0.50;;;22.70;42.40;;;-147.20;100.00;58430.41;5092739;28;20084;-19
2022/05/29 04:00:25;;;;;;;0.98;0.60;;;22.70;42.30;;;-147.20;100.00;58430.41;5092357;28;20052;-19
2022/05/29 04:02:52;;;;;;;0.47;0.32;;;22.70;42.30;;;-147.20;100.00;58430.41;5092903;28;20492;-19
2022/05/29 04:05:21;;;;;;;0.38;0.38;;;22.70;42.30;;;-147.20;100.00;58430.41;5092739;28;20044;-19
2022/05/29 04:13:21;;;;;;;0.65;0.40;;;22.70;42.30;;;-147.20;100.00;58430.41;5092952;28;20484;-19
2022/05/29 04:15:46;;;;;;;0.50;0.50;;;22.70;42.40;;;-147.20;100.00;58430.41;5092227;28;20044;-19
2022/05/29 04:18:17;;;;;;;0.65;0.45;;;22.70;42.30;;;-147.20;100.00;58430.41;5092307;28;20059;-19
2022/05/29 04:20:44;;;;;;;0.43;0.40;;;22.70;42.30;;;-147.20;100.00;58430.41;5092160;28;20055;-19
2022/05/29 04:23:11;;;;;;;0.77;0.60;;;22.70;42.30;;;-147.20;100.00;58430.41;5092590;28;20520;-19
2022/05/29 04:25:37;;;;;;;0.70;0.40;;;22.70;42.30;;;-147.20;100.00;58430.41;5092465;28;20044;-19
2022/05/29 04:28:03;;;;;;;0.80;0.60;;;22.70;42.30;;;-147.20;100.00;58430.41;5092200;28;20048;-19
2022/05/29 04:30:30;;;;;;;0.82;0.57;;;22.70;42.30;;;-147.20;100.00;58430.41;5092228;28;20055;-19
2022/05/29 04:33:01;;;;;;;0.40;0.40;;;22.70;42.30;;;-147.20;100.00;58430.41;5092442;28;20054;-19
2022/05/29 04:35:37;;;;;;;0.77;0.52;;;22.70;42.30;;;-147.20;100.00;58430.41;5092417;28;20125;-19
2022/05/29 04:38:03;;;;;;;0.40;0.40;;;22.70;42.30;;;-147.20;100.00;58430.41;5092362;28;20415;-19
2022/05/29 04:40:30;;;;;;;0.40;0.40;;;22.70;42.30;;;-147.20;100.00;58430.41;5095827;28;20439;-19
2022/05/29 04:42:56;;;;;;;0.40;0.40;;;22.70;42.30;;;-147.20;100.00;58430.41;5095481;28;20065;-19
2022/05/29 04:45:21;;;;;;;0.57;0.50;;;22.70;42.30;;;-147.20;100.00;58430.41;5095418;28;20048;-20
2022/05/29 04:47:47;;;;;;;0.77;0.47;;;22.70;42.30;;;-147.20;100.00;58430.41;5095518;28;20050;-19
2022/05/29 04:50:13;;;;;;;0.50;0.40;;;22.70;42.30;;;-147.20;100.00;58430.41;5095344;28;20094;-19
2022/05/29 04:52:39;;;;;;;0.47;0.47;;;22.70;42.30;;;-147.20;100.00;58430.41;5095319;28;20488;-19
2022/05/29 04:55:06;;;;;;;0.40;0.40;;;22.70;42.30;;;-147.20;100.00;58430.41;5095334;28;20107;-19
2022/05/29 04:57:32;;;;;;;0.50;0.50;;;22.70;42.30;;;-147.20;100.00;58430.41;5077157;28;20445;-19
2022/05/29 04:59:58;;;;;;;0.60;0.60;;;22.70;42.30;;;-147.20;100.00;58430.41;5095510;28;20043;-19
2022/05/29 05:02:25;;;;;;;0.50;0.50;;;22.70;42.30;;;-147.20;100.00;58430.41;5095726;28;20050;-19
2022/05/29 05:04:52;;;;;;;1.05;0.50;;;22.70;42.30;;;-147.20;100.00;58430.41;5095234;28;20399;-19
2022/05/29 05:07:17;;;;;;;0.60;0.60;;;22.70;42.30;;;-147.20;100.00;58430.41;5095287;28;20036;-19
2022/05/29 05:09:43;;;;;;;0.50;0.50;;;22.70;42.30;;;-147.20;100.00;58430.41;5094961;28;20070;-19
2022/05/29 05:12:10;;;;;;;0.55;0.50;;;22.70;42.30;;;-147.20;100.00;58430.41;5095138;28;20063;-19
2022/05/29 05:14:36;;;;;;;0.50;0.50;;;22.70;42.30;;;-147.20;100.00;58430.41;5095140;28;20048;-19
2022/05/29 05:17:04;;;;;;;0.57;0.50;;;22.70;42.30;;;-147.20;100.00;58430.41;5095492;28;20106;-19
2022/05/29 05:19:31;;;;;;;0.45;0.40;;;22.70;42.30;;;-147.20;100.00;58430.41;5094693;28;20051;-19
2022/05/29 05:22:04;;;;;;;0.85;0.50;;;22.70;42.30;;;-147.20;100.00;58430.41;5076814;28;20044;-19
2022/05/29 05:24:33;;;;;;;0.50;0.50;;;22.70;42.20;;;-147.20;100.00;58430.41;5094978;28;20052;-19
2022/05/29 05:27:00;;;;;;;0.90;0.60;;;22.70;42.30;;;-147.20;100.00;58430.41;5095390;28;20078;-19
2022/05/29 05:29:26;;;;;;;0.80;0.57;;;22.70;42.30;;;-147.20;100.00;58430.41;5093734;28;20048;-19
2022/05/29 05:31:52;;;;;;;0.93;0.80;;;22.70;42.30;;;-147.20;100.00;58430.41;5094782;28;20043;-19
2022/05/29 05:34:17;;;;;;;0.90;0.60;;;22.70;42.20;;;-147.20;100.00;58430.41;5094750;28;20055;-19
2022/05/29 05:36:43;;;;;;;0.57;0.57;;;22.70;42.20;;;-147.20;100.00;58430.41;5094945;28;20055;-19
2022/05/29 05:39:09;;;;;;;0.90;0.50;;;22.70;42.30;;;-147.20;100.00;58430.41;5094636;28;20063;-19
2022/05/29 05:41:35;;;;;;;0.70;0.50;;;22.70;42.20;;;-147.20;100.00;58430.41;5094659;28;20189;-19
2022/05/29 05:44:01;;;;;;;0.90;0.55;;;22.70;42.20;;;-147.20;100.00;58430.41;5094589;28;20112;-20
2022/05/29 05:46:27;;;;;;;0.47;0.47;;;22.70;42.20;;;-147.20;100.00;58430.41;5075160;28;20088;-20
2022/05/29 05:48:54;;;;;;;0.50;0.40;;;22.70;42.20;;;-147.20;100.00;58430.41;5094305;28;20115;-19
2022/05/29 05:51:19;;;;;;;0.70;0.65;;;22.70;42.20;;;-147.20;100.00;58430.41;5093940;28;20036;-19
2022/05/29 05:53:45;;;;;;;0.40;0.40;;;22.70;42.20;;;-147.20;100.00;58430.41;5094376;28;20124;-19
2022/05/29 05:56:14;;;;;;;0.60;0.50;;;22.70;42.20;;;-147.20;100.00;58430.41;5095005;28;20043;-19
2022/05/29 05:58:42;;;;;;;0.40;0.40;;;22.70;42.20;;;-147.20;100.00;58430.41;5094285;28;20593;-19
2022/05/29 06:01:13;;;;;;;1.00;0.63;;;22.70;42.20;;;-147.20;100.00;58430.41;5094241;28;20423;-19
2022/05/29 06:03:39;;;;;;;0.80;0.73;;;22.70;42.20;;;-147.20;100.00;58430.41;5094571;28;20040;-19
2022/05/29 06:06:05;;;;;;;0.77;0.60;;;22.70;42.20;;;-147.20;100.00;58430.41;5094795;28;20380;-19
2022/05/29 06:08:32;;;;;;;1.17;0.60;;;22.70;42.20;;;-147.20;100.00;58430.41;5094053;28;20056;-19
2022/05/29 06:10:58;;;;;;;0.38;0.38;;;22.70;42.20;;;-147.20;100.00;58430.41;5094447;28;20075;-19
2022/05/29 06:13:23;;;;;;;0.85;0.60;;;22.70;42.20;;;-147.20;100.00;58430.41;5094427;28;20531;-19
2022/05/29 06:15:50;;;;;;;1.13;0.57;;;22.70;42.20;;;-147.20;100.00;58430.41;5094128;28;20432;-19
2022/05/29 06:18:17;;;;;;;0.57;0.50;;;22.70;42.20;;;-147.20;100.00;58430.41;5093855;28;20480;-19
2022/05/29 06:20:44;;;;;;;0.50;0.50;;;22.70;42.20;;;-147.20;100.00;58430.41;5094312;28;20050;-19
2022/05/29 06:23:11;;;;;;;0.45;0.45;;;22.70;42.20;;;-147.20;100.00;58430.41;5094533;28;20044;-19
2022/05/29 06:25:41;;;;;;;0.40;0.40;;;22.70;42.20;;;-147.20;100.00;58430.41;5093964;28;20048;-19
2022/05/29 06:28:08;;;;;;;0.50;0.50;;;22.70;42.20;;;-147.20;100.00;58430.41;5094506;28;20044;-18
2022/05/29 06:30:35;;;;;;;0.50;0.50;;;22.70;42.20;;;-147.20;100.00;58430.41;5093844;28;20489;-19
2022/05/29 06:33:01;;;;;;;0.90;0.50;;;22.70;42.20;;;-147.20;100.00;58430.41;5093830;28;20052;-19
2022/05/29 06:35:28;;;;;;;0.47;0.40;;;22.70;42.20;;;-147.20;100.00;58430.41;5094072;28;20469;-19
2022/05/29 06:37:54;;;;;;;0.50;0.50;;;22.70;42.20;;;-147.20;100.00;58430.41;5093648;28;20515;-19
2022/05/29 06:40:20;;;;;;;0.50;0.50;;;22.70;42.20;;;-147.20;100.00;58430.41;5093590;28;20048;-19
2022/05/29 06:42:46;;;;;;;0.63;0.60;;;22.70;42.20;;;-147.20;100.00;58430.41;5093786;28;20040;-19
2022/05/29 06:45:12;;;;;;;0.40;0.40;;;22.70;42.20;;;-147.20;100.00;58430.41;5093799;28;20129;-19
2022/05/29 06:47:39;;;;;;;0.90;0.50;;;22.70;42.20;;;-147.20;100.00;58430.41;5093523;28;20066;-19
2022/05/29 06:50:07;;;;;;;0.73;0.50;;;22.70;42.20;;;-147.20;100.00;58430.41;5093506;28;20044;-19
2022/05/29 06:52:33;;;;;;;0.57;0.55;;;22.70;42.20;;;-147.20;100.00;58430.41;5093506;28;20044;-19
2022/05/29 06:55:00;;;;;;;0.50;0.50;;;22.70;42.20;;;-147.20;100.00;58430.41;5093792;28;20048;-19
2022/05/29 06:57:40;;;;;;;0.98;0.68;;;22.70;42.20;;;-147.20;100.00;58430.41;5093561;28;20411;-19
2022/05/29 07:08:44;;;;;;;0.40;0.40;;;22.70;42.10;;;-147.20;100.00;58430.41;5093322;28;20048;-19
2022/05/29 07:11:27;;;;;;;0.40;0.40;;;22.70;42.10;;;-147.20;100.00;58430.41;5093297;28;20056;-20
2022/05/29 07:13:54;;;;;;;0.47;0.47;;;22.70;42.10;;;-147.20;100.00;58430.41;5093197;28;20055;-19
2022/05/29 07:16:20;;;;;;;0.80;0.73;;;22.70;42.10;;;-147.20;100.00;58430.41;5093234;28;20059;-19
2022/05/29 07:18:50;;;;;;;0.60;0.50;;;22.70;42.10;;;-147.20;100.00;58430.41;5092934;28;20044;-19
2022/05/29 07:21:16;;;;;;;0.75;0.45;;;22.70;42.10;;;-147.20;100.00;58430.41;5093182;28;20044;-19
2022/05/29 07:23:43;;;;;;;0.55;0.50;;;22.70;42.00;;;-147.20;100.00;58430.41;5093317;28;20051;-18
2022/05/29 07:26:09;;;;;;;1.42;0.60;;;22.80;42.10;;;-147.20;100.00;58430.41;5093059;28;20067;-19
2022/05/29 07:28:34;;;;;;;0.63;0.60;;;22.80;42.00;;;-147.20;100.00;58430.41;5092923;28;20429;-19
2022/05/29 07:31:00;;;;;;;0.50;0.50;;;22.80;42.00;;;-147.20;100.00;58430.41;5092871;28;20488;-19
2022/05/29 07:33:27;;;;;;;0.68;0.55;;;22.80;42.00;;;-147.20;100.00;58430.41;5074894;28;20044;-19
2022/05/29 07:35:52;;;;;;;0.50;0.50;;;22.90;42.00;;;-147.20;100.00;58430.41;5093209;28;20396;-19
2022/05/29 07:38:19;;;;;;;0.82;0.50;;;22.80;41.90;;;-147.20;100.00;58430.41;5092677;28;20062;-19
2022/05/29 07:40:44;;;;;;;0.70;0.60;;;22.80;41.90;;;-147.20;100.00;58430.41;5093222;28;20472;-19
2022/05/29 07:43:19;;;;;;;0.40;0.40;;;22.80;41.80;;;-147.20;100.00;58430.41;5092793;28;20124;-19
2022/05/29 07:45:56;;;;;;;0.65;0.60;;;22.80;41.90;;;-147.20;100.00;58430.41;5093382;28;20052;-19
2022/05/29 07:48:26;;;;;;;0.85;0.57;;;22.90;41.90;;;-147.20;100.00;58430.41;5092947;28;20071;-19
2022/05/29 07:50:53;;;;;;;0.55;0.55;;;22.90;41.80;;;-147.20;100.00;58430.41;5092653;28;20082;-19
2022/05/29 07:53:19;;;;;;;0.40;0.40;;;22.90;41.80;;;-147.20;100.00;58430.41;5092601;28;20086;-19
2022/05/29 07:55:45;;;;;;;0.65;0.40;;;22.90;41.80;;;-147.20;100.00;58430.41;5092591;28;20419;-19
2022/05/29 07:58:13;;;;;;;0.77;0.50;;;22.90;41.70;;;-147.20;100.00;58430.41;5092619;28;20043;-19
2022/05/29 08:00:41;;;;;;;0.98;0.60;;;23.00;41.70;;;-147.20;100.00;58430.41;5092901;28;20059;-20
2022/05/29 08:03:07;;;;;;;0.50;0.50;;;23.00;41.60;;;-147.20;100.00;58430.41;5092574;28;20408;-19
2022/05/29 08:05:36;;;;;;;0.40;0.40;;;23.10;41.60;;;-147.20;100.00;58430.41;5092819;28;20056;-19
2022/05/29 08:08:05;;;;;;;0.55;0.55;;;23.10;41.50;;;-147.20;100.00;58430.41;5074084;28;20549;-19
2022/05/29 08:10:35;;;;;;;0.45;0.45;;;23.10;41.40;;;-147.20;100.00;58430.41;5092493;28;20078;-19
2022/05/29 08:13:01;;;;;;;0.60;0.60;;;23.20;41.40;;;-147.20;100.00;58430.41;5092387;28;20492;-19
2022/05/29 08:15:27;;;;;;;0.70;0.50;;;23.20;41.40;;;-147.20;100.00;58430.41;5095935;28;20043;-19
2022/05/29 08:17:53;;;;;;;0.50;0.50;;;23.20;41.30;;;-147.20;100.00;58430.41;5095970;28;20040;-19
2022/05/29 08:20:19;;;;;;;0.88;0.50;;;23.20;41.40;;;-147.20;100.00;58430.41;5096289;28;20618;-19
2022/05/29 08:22:45;;;;;;;0.60;0.60;;;23.10;41.40;;;-147.20;100.00;58430.41;5095807;28;20048;-19
2022/05/29 08:30:46;;;;;;;0.93;0.70;;;23.10;41.50;;;-147.20;100.00;58430.41;5095725;28;20048;-19
2022/05/29 08:33:18;;;;;;;0.60;0.50;;;23.00;41.50;;;-147.20;100.00;58430.41;5096074;28;20442;-19
2022/05/29 08:35:52;;;;;;;0.65;0.65;;;23.00;41.60;;;-147.20;100.00;58430.41;5095664;28;20122;-19
2022/05/29 08:38:18;;;;;;;0.60;0.55;;;23.00;41.60;;;-147.20;100.00;58430.41;5095204;28;20325;-19
2022/05/29 08:40:51;;;;;;;0.80;0.60;;;23.00;41.60;;;-147.20;100.00;58430.41;5096012;28;20040;-19
2022/05/29 08:43:31;;;;;;;0.50;0.50;;;23.00;41.60;;;-147.20;100.00;58430.41;5077800;28;20380;-19
2022/05/29 08:46:04;;;;;;;0.75;0.75;;;23.00;41.60;;;-147.20;100.00;58430.41;5095819;28;20040;-19
2022/05/29 08:48:30;;;;;;;0.50;0.50;;;23.00;41.70;;;-147.20;100.00;58430.41;5077375;28;20060;-19
2022/05/29 08:51:32;;;;;;;0.50;0.50;;;23.00;41.70;;;-147.20;100.00;58430.41;5095390;28;20134;-19
2022/05/29 08:54:09;;;;;;;0.60;0.55;;;23.00;41.70;;;-147.20;100.00;58430.41;5095754;28;20392;-19
2022/05/29 08:56:57;;;;;;;0.60;0.57;;;23.00;41.70;;;-147.20;100.00;58430.41;5076254;28;20480;-19
2022/05/29 08:59:51;;;;;;;0.40;0.40;;;23.00;41.70;;;-147.20;100.00;58430.41;5095270;28;20388;-19
2022/05/29 09:02:40;;;;;;;0.40;0.40;;;23.00;41.70;;;-147.20;100.00;58430.41;5077133;28;20083;-19
2022/05/29 09:05:13;;;;;;;0.60;0.60;;;23.00;41.70;;;-147.20;100.00;58430.41;5095199;28;20044;-19
2022/05/29 09:07:41;;;;;;;0.60;0.40;;;23.00;41.70;;;-147.20;100.00;58430.41;5095693;28;20468;-20
2022/05/29 09:10:18;;;;;;;0.60;0.60;;;23.00;41.60;;;-147.20;100.00;58430.41;5095159;28;20081;-19
2022/05/29 09:12:50;;;;;;;0.68;0.50;;;23.00;41.60;;;-147.20;100.00;58430.41;5077296;28;20048;-19
2022/05/29 09:15:33;;;;;;;0.85;0.60;;;23.00;41.60;;;-147.20;100.00;58430.41;5077292;28;20067;-19
2022/05/29 09:18:12;;;;;;;0.60;0.60;;;23.00;41.60;;;-147.20;100.00;58430.41;5076374;28;20047;-19
2022/05/29 09:20:47;;;;;;;0.68;0.63;;;23.00;41.50;;;-147.20;100.00;58430.41;5095139;28;20139;-19
2022/05/29 09:23:21;;;;;;;0.40;0.40;;;23.00;41.50;;;-147.20;100.00;58430.41;5076918;28;20094;-19
2022/05/29 09:25:47;;;;;;;0.57;0.57;;;23.00;41.50;;;-147.20;100.00;58430.41;5075831;28;20505;-19
2022/05/29 09:28:24;;;;;;;0.50;0.50;;;23.00;42.10;;;-147.20;100.00;58430.41;5094750;28;20059;-18
2022/05/29 09:30:54;;;;;;;0.52;0.50;;;23.00;41.50;;;-147.20;100.00;58430.41;5077595;28;20086;-18
2022/05/29 09:33:25;;;;;;;0.33;0.30;;;23.00;41.50;;;-147.20;100.00;58430.41;5095212;28;20055;-19
2022/05/29 09:36:23;;;;;;;0.50;0.50;;;23.00;41.50;;;-147.20;100.00;58430.41;5094791;28;20049;-19
2022/05/29 09:39:35;;;;;;;0.93;0.63;;;23.00;41.50;;;-147.20;100.00;58430.41;5076687;28;20036;-19
2022/05/29 09:42:05;;;;;;;0.70;0.60;;;23.00;41.60;;;-147.20;100.00;58430.41;5081233;28;20092;-20
2022/05/29 09:44:32;;;;;;;0.47;0.47;;;23.00;41.60;;;-147.20;100.00;58430.41;5094885;28;20506;-19
2022/05/29 09:50:05;;;;;;;0.63;0.50;;;23.00;41.60;;;-147.20;100.00;58430.41;5094490;28;20048;-19
2022/05/29 09:52:37;;;;;;;0.88;0.60;;;23.00;41.60;;;-147.20;100.00;58430.41;5094503;28;20063;-19
2022/05/29 09:55:36;;;;;;;0.70;0.70;;;23.00;41.70;;;-147.20;100.00;58430.41;5076734;28;20131;-19
2022/05/29 09:58:09;;;;;;;0.50;0.50;;;23.00;41.70;;;-147.20;100.00;58430.41;5075042;28;20056;-20
2022/05/29 10:00:43;;;;;;;0.65;0.60;;;23.00;41.70;;;-147.20;100.00;58430.41;5076132;28;20054;-19
2022/05/29 10:03:32;;;;;;;0.55;0.55;;;23.00;41.70;;;-147.20;100.00;58430.41;5076769;28;20052;-19
2022/05/29 10:06:16;;;;;;;0.55;0.50;;;23.00;41.70;;;-147.20;100.00;58430.41;5076061;28;20123;-18
2022/05/29 10:08:44;;;;;;;1.35;0.43;;;23.00;41.60;;;-147.20;100.00;58430.41;5076160;28;20135;-20
2022/05/29 10:11:27;;;;;;;0.52;0.50;;;23.00;41.60;;;-147.20;100.00;58430.41;5076543;28;20130;-19
2022/05/29 10:13:53;;;;;;;0.40;0.40;;;23.00;41.50;;;-147.20;100.00;58430.41;5093952;28;20146;-19
2022/05/29 10:16:39;;;;;;;0.35;0.32;;;23.10;41.50;;;-147.20;100.00;58430.41;5094132;28;20103;-19
2022/05/29 10:19:14;;;;;;;0.57;0.57;;;23.10;41.50;;;-147.20;100.00;58430.41;5075416;28;20045;-19
2022/05/29 10:21:50;;;;;;;1.38;0.70;;;23.10;41.50;;;-147.20;100.00;58430.41;5093867;28;20048;-19
2022/05/29 10:24:40;;;;;;;0.70;0.50;;;23.10;41.40;;;-147.20;100.00;58430.41;5093891;28;20059;-19
2022/05/29 10:27:21;;;;;;;0.50;0.50;;;23.10;41.50;;;-147.20;100.00;58430.41;5094289;28;20082;-19
2022/05/29 10:30:00;;;;;;;0.60;0.60;;;23.10;41.40;;;-147.20;100.00;58430.41;5074122;28;20183;-18
2022/05/29 10:32:31;;;;;;;0.60;0.57;;;23.10;41.40;;;-147.20;100.00;58430.41;5075733;28;20048;-19
2022/05/29 10:35:18;;;;;;;0.63;0.52;;;23.10;41.30;;;-147.20;100.00;58430.41;5094436;28;20051;-20
2022/05/29 10:37:46;;;;;;;0.40;0.40;;;23.10;41.30;;;-147.20;100.00;58430.41;5093796;28;20052;-19
2022/05/29 10:40:31;;;;;;;0.60;0.60;;;23.10;41.30;;;-147.20;100.00;58430.41;5093644;28;20056;-20
2022/05/29 10:43:06;;;;;;;0.50;0.47;;;23.20;41.30;;;-147.20;100.00;58430.41;5093807;28;20503;-19
2022/05/29 10:45:43;;;;;;;0.60;0.60;;;23.10;41.30;;;-147.20;100.00;58430.41;5094024;28;20079;-19
2022/05/29 10:48:19;;;;;;;0.68;0.60;;;23.10;41.30;;;-147.20;100.00;58430.41;5075441;28;20059;-18